HAZ184 VHHH-RJFF
Flight info
| Callsign | HAZ184 |
|---|---|
| Flight time | N/A |
| Altitude | 37000 |
| Route | DALOL V631 ENVAR M750 MOMPA Y25 GOKYO/N0462F380 Y25 ISKUP |
| Aircraft | B738/M-SDE2E3FGHIRWXY/LB1 |
Departure
| Time | 2026-05-07 23:37 |
|---|---|
| Airport | Hong Kong International Airport (VHHH) |
Arrival
| Time | N/A |
|---|---|
| Airport | Fukuoka Airport (RJFF) |
| Time | Latitude | Longitude | Altitude | Speed | Heading |
|---|---|---|---|---|---|
| 2026-05-07 23:16 | 22.31320 | 113.92540 | 35 ft | 0 kts | 26° |
| 2026-05-07 23:25 | 22.31313 | 113.92536 | 34 ft | 2 kts | 26° |
| 2026-05-07 23:25 | 22.31299 | 113.92529 | 34 ft | 2 kts | 26° |
| 2026-05-07 23:25 | 22.31286 | 113.92522 | 34 ft | 2 kts | 26° |
| 2026-05-07 23:25 | 22.31272 | 113.92514 | 34 ft | 2 kts | 26° |
| 2026-05-07 23:26 | 22.31264 | 113.92509 | 34 ft | 1 kts | 27° |
| 2026-05-07 23:26 | 22.31249 | 113.92506 | 34 ft | 2 kts | 345° |
| 2026-05-07 23:26 | 22.31236 | 113.92515 | 34 ft | 2 kts | 308° |
| 2026-05-07 23:26 | 22.31233 | 113.92521 | 34 ft | 1 kts | 290° |
| 2026-05-07 23:27 | 22.31231 | 113.92526 | 34 ft | 0 kts | 295° |
| 2026-05-07 23:28 | 22.31231 | 113.92525 | 34 ft | 0 kts | 295° |
| 2026-05-07 23:29 | 22.31240 | 113.92506 | 34 ft | 5 kts | 296° |
| 2026-05-07 23:29 | 22.31266 | 113.92448 | 34 ft | 10 kts | 295° |
| 2026-05-07 23:29 | 22.31301 | 113.92371 | 34 ft | 12 kts | 294° |
| 2026-05-07 23:29 | 22.31344 | 113.92278 | 34 ft | 14 kts | 294° |
| 2026-05-07 23:30 | 22.31385 | 113.92184 | 34 ft | 13 kts | 294° |
| 2026-05-07 23:30 | 22.31431 | 113.92102 | 34 ft | 12 kts | 317° |
| 2026-05-07 23:30 | 22.31495 | 113.92049 | 34 ft | 10 kts | 337° |
| 2026-05-07 23:30 | 22.31531 | 113.91989 | 34 ft | 8 kts | 258° |
| 2026-05-07 23:31 | 22.31503 | 113.91935 | 34 ft | 7 kts | 250° |
| 2026-05-07 23:31 | 22.31482 | 113.91871 | 34 ft | 11 kts | 250° |
| 2026-05-07 23:31 | 22.31450 | 113.91770 | 34 ft | 16 kts | 251° |
| 2026-05-07 23:31 | 22.31406 | 113.91636 | 34 ft | 21 kts | 250° |
| 2026-05-07 23:32 | 22.31350 | 113.91464 | 34 ft | 26 kts | 249° |
| 2026-05-07 23:32 | 22.31285 | 113.91264 | 34 ft | 28 kts | 250° |
| 2026-05-07 23:32 | 22.31222 | 113.91071 | 34 ft | 26 kts | 251° |
| 2026-05-07 23:32 | 22.31162 | 113.90884 | 34 ft | 25 kts | 251° |
| 2026-05-07 23:33 | 22.31105 | 113.90707 | 34 ft | 24 kts | 251° |
| 2026-05-07 23:33 | 22.31049 | 113.90534 | 34 ft | 23 kts | 250° |
| 2026-05-07 23:33 | 22.30997 | 113.90371 | 34 ft | 22 kts | 251° |
| 2026-05-07 23:33 | 22.30947 | 113.90216 | 34 ft | 21 kts | 252° |
| 2026-05-07 23:34 | 22.30899 | 113.90069 | 34 ft | 20 kts | 251° |
| 2026-05-07 23:34 | 22.30854 | 113.89926 | 34 ft | 19 kts | 251° |
| 2026-05-07 23:34 | 22.30811 | 113.89793 | 34 ft | 18 kts | 252° |
| 2026-05-07 23:34 | 22.30883 | 113.89711 | 34 ft | 16 kts | 335° |
| 2026-05-07 23:35 | 22.30985 | 113.89675 | 34 ft | 14 kts | 347° |
| 2026-05-07 23:35 | 22.31073 | 113.89703 | 34 ft | 11 kts | 69° |
| 2026-05-07 23:35 | 22.31078 | 113.89755 | 34 ft | 5 kts | 69° |
| 2026-05-07 23:35 | 22.31094 | 113.89805 | 34 ft | 11 kts | 72° |
| 2026-05-07 23:36 | 22.31163 | 113.90015 | 34 ft | 60 kts | 71° |
| 2026-05-07 23:36 | 22.31372 | 113.90662 | 34 ft | 120 kts | 72° |
| 2026-05-07 23:36 | 22.31705 | 113.91686 | 35 ft | 169 kts | 70° |
| 2026-05-07 23:36 | 22.32149 | 113.93010 | 221 ft | 194 kts | 69° |
| 2026-05-07 23:37 | 22.32641 | 113.94350 | 901 ft | 190 kts | 69° |
| 2026-05-07 23:37 | 22.33087 | 113.95632 | 1663 ft | 186 kts | 68° |
| 2026-05-07 23:37 | 22.33624 | 113.97012 | 1761 ft | 214 kts | 65° |
| 2026-05-07 23:37 | 22.34296 | 113.98472 | 2427 ft | 210 kts | 61° |
| 2026-05-07 23:38 | 22.34980 | 113.99721 | 3370 ft | 189 kts | 57° |
| 2026-05-07 23:38 | 22.35779 | 114.00950 | 3554 ft | 213 kts | 52° |
| 2026-05-07 23:38 | 22.36757 | 114.02222 | 3883 ft | 225 kts | 47° |
| 2026-05-07 23:38 | 22.37801 | 114.03372 | 4854 ft | 203 kts | 42° |
| 2026-05-07 23:39 | 22.38869 | 114.04378 | 5255 ft | 213 kts | 37° |
| 2026-05-07 23:39 | 22.40118 | 114.05379 | 5372 ft | 231 kts | 33° |
| 2026-05-07 23:39 | 22.41469 | 114.06289 | 6088 ft | 222 kts | 28° |
| 2026-05-07 23:39 | 22.42778 | 114.07021 | 6846 ft | 211 kts | 23° |
| 2026-05-07 23:40 | 22.44204 | 114.07664 | 7079 ft | 229 kts | 18° |
| 2026-05-07 23:40 | 22.45746 | 114.08199 | 7563 ft | 232 kts | 13° |
| 2026-05-07 23:40 | 22.47247 | 114.08575 | 8404 ft | 217 kts | 8° |
| 2026-05-07 23:40 | 22.48757 | 114.08813 | 8808 ft | 226 kts | 4° |
| 2026-05-07 23:41 | 22.50393 | 114.08920 | 9113 ft | 238 kts | 358° |
| 2026-05-07 23:41 | 22.51966 | 114.08884 | 9849 ft | 228 kts | 353° |
| 2026-05-07 23:41 | 22.53509 | 114.08709 | 10544 ft | 221 kts | 349° |
| 2026-05-07 23:41 | 22.55058 | 114.08376 | 10847 ft | 235 kts | 344° |
| 2026-05-07 23:42 | 22.56650 | 114.07864 | 11346 ft | 238 kts | 339° |
| 2026-05-07 23:42 | 22.58172 | 114.07201 | 11979 ft | 237 kts | 334° |
| 2026-05-07 23:42 | 22.59728 | 114.06365 | 11526 ft | 272 kts | 330° |
| 2026-05-07 23:42 | 22.61470 | 114.05290 | 10034 ft | 316 kts | 327° |
| 2026-05-07 23:43 | 22.63418 | 114.03971 | 8763 ft | 340 kts | 326° |
| 2026-05-07 23:43 | 22.65373 | 114.02577 | 8688 ft | 322 kts | 325° |
| 2026-05-07 23:43 | 22.67106 | 114.01299 | 9270 ft | 288 kts | 324° |
| 2026-05-07 23:43 | 22.68723 | 114.00056 | 9817 ft | 283 kts | 322° |
| 2026-05-07 23:44 | 22.70288 | 113.98776 | 10249 ft | 284 kts | 320° |
| 2026-05-07 23:44 | 22.71829 | 113.97417 | 10635 ft | 284 kts | 318° |
| 2026-05-07 23:44 | 22.73322 | 113.95988 | 10991 ft | 287 kts | 316° |
| 2026-05-07 23:44 | 22.74760 | 113.94481 | 11359 ft | 288 kts | 314° |
| 2026-05-07 23:45 | 22.76146 | 113.92889 | 11751 ft | 289 kts | 311° |
| 2026-05-07 23:45 | 22.77442 | 113.91254 | 12180 ft | 290 kts | 309° |
| 2026-05-07 23:45 | 22.78700 | 113.89507 | 12715 ft | 293 kts | 307° |
| 2026-05-07 23:45 | 22.79868 | 113.87705 | 13319 ft | 293 kts | 304° |
| 2026-05-07 23:46 | 22.80960 | 113.85827 | 13858 ft | 295 kts | 301° |
| 2026-05-07 23:46 | 22.81973 | 113.83884 | 14423 ft | 296 kts | 298° |
| 2026-05-07 23:46 | 22.82892 | 113.81917 | 14967 ft | 298 kts | 295° |
| 2026-05-07 23:46 | 22.83754 | 113.79858 | 15487 ft | 300 kts | 292° |
| 2026-05-07 23:47 | 22.84534 | 113.77753 | 15980 ft | 302 kts | 290° |
| 2026-05-07 23:47 | 22.85224 | 113.75603 | 16484 ft | 304 kts | 287° |
| 2026-05-07 23:47 | 22.85819 | 113.73385 | 16977 ft | 306 kts | 285° |
| 2026-05-07 23:47 | 22.86299 | 113.71143 | 17425 ft | 309 kts | 282° |
| 2026-05-07 23:48 | 22.86669 | 113.68825 | 17854 ft | 313 kts | 279° |
| 2026-05-07 23:48 | 22.86919 | 113.66480 | 18377 ft | 313 kts | 276° |
| 2026-05-07 23:48 | 22.87054 | 113.64149 | 18937 ft | 311 kts | 273° |
| 2026-05-07 23:48 | 22.87087 | 113.61814 | 19335 ft | 315 kts | 270° |
| 2026-05-07 23:49 | 22.87016 | 113.59426 | 19781 ft | 317 kts | 268° |
| 2026-05-07 23:49 | 22.86838 | 113.57022 | 20262 ft | 317 kts | 265° |
| 2026-05-07 23:49 | 22.86560 | 113.54668 | 20656 ft | 320 kts | 262° |
| 2026-05-07 23:49 | 22.86174 | 113.52280 | 21003 ft | 324 kts | 260° |
| 2026-05-07 23:50 | 22.85677 | 113.49898 | 21410 ft | 326 kts | 257° |
| 2026-05-07 23:50 | 22.85066 | 113.47503 | 21792 ft | 328 kts | 255° |
| 2026-05-07 23:50 | 22.84353 | 113.45150 | 22098 ft | 333 kts | 252° |
| 2026-05-07 23:50 | 22.83517 | 113.42777 | 22477 ft | 335 kts | 250° |
| 2026-05-07 23:51 | 22.82584 | 113.40460 | 22877 ft | 337 kts | 247° |
| 2026-05-07 23:51 | 22.81569 | 113.38236 | 23167 ft | 340 kts | 244° |
| 2026-05-07 23:51 | 22.80413 | 113.35982 | 23492 ft | 343 kts | 242° |
| 2026-05-07 23:51 | 22.79167 | 113.33800 | 23853 ft | 345 kts | 239° |
| 2026-05-07 23:52 | 22.77800 | 113.31636 | 24194 ft | 348 kts | 236° |
| 2026-05-07 23:52 | 22.76334 | 113.29520 | 24454 ft | 352 kts | 234° |
| 2026-05-07 23:52 | 22.74790 | 113.27486 | 24665 ft | 353 kts | 232° |
| 2026-05-07 23:52 | 22.73126 | 113.25474 | 24768 ft | 355 kts | 229° |
| 2026-05-07 23:53 | 22.71422 | 113.23580 | 24774 ft | 356 kts | 227° |
| 2026-05-07 23:53 | 22.69597 | 113.21711 | 24700 ft | 356 kts | 225° |
| 2026-05-07 23:53 | 22.67738 | 113.19958 | 24576 ft | 355 kts | 222° |
| 2026-05-07 23:53 | 22.65800 | 113.18274 | 24411 ft | 356 kts | 220° |
| 2026-05-07 23:54 | 22.63804 | 113.16681 | 24282 ft | 355 kts | 218° |
| 2026-05-07 23:54 | 22.61769 | 113.15188 | 24193 ft | 355 kts | 216° |
| 2026-05-07 23:54 | 22.59648 | 113.13766 | 24171 ft | 356 kts | 213° |
| 2026-05-07 23:54 | 22.57503 | 113.12462 | 24252 ft | 357 kts | 211° |
| 2026-05-07 23:55 | 22.55273 | 113.11240 | 24424 ft | 359 kts | 208° |
| 2026-05-07 23:55 | 22.52978 | 113.10103 | 24664 ft | 363 kts | 206° |
| 2026-05-07 23:55 | 22.50661 | 113.09064 | 24974 ft | 364 kts | 204° |
| 2026-05-07 23:55 | 22.48248 | 113.08102 | 25292 ft | 367 kts | 202° |
| 2026-05-07 23:56 | 22.45796 | 113.07243 | 25550 ft | 370 kts | 199° |
| 2026-05-07 23:56 | 22.43301 | 113.06487 | 25773 ft | 372 kts | 197° |
| 2026-05-07 23:56 | 22.40754 | 113.05831 | 25885 ft | 375 kts | 195° |
| 2026-05-07 23:56 | 22.38167 | 113.05278 | 25866 ft | 375 kts | 193° |
| 2026-05-07 23:57 | 22.35593 | 113.04837 | 25724 ft | 375 kts | 190° |
| 2026-05-07 23:57 | 22.32986 | 113.04495 | 25472 ft | 375 kts | 188° |
| 2026-05-07 23:57 | 22.30370 | 113.04236 | 25138 ft | 375 kts | 186° |
| 2026-05-07 23:57 | 22.27771 | 113.04064 | 24729 ft | 373 kts | 185° |
| 2026-05-07 23:58 | 22.25253 | 113.03985 | 24271 ft | 373 kts | 182° |
| 2026-05-07 23:58 | 22.22661 | 113.03995 | 23791 ft | 372 kts | 180° |
| 2026-05-07 23:58 | 22.20150 | 113.04095 | 23403 ft | 369 kts | 178° |
| 2026-05-07 23:58 | 22.17592 | 113.04293 | 23091 ft | 364 kts | 176° |
| 2026-05-07 23:59 | 22.15079 | 113.04591 | 22841 ft | 361 kts | 173° |
| 2026-05-07 23:59 | 22.12576 | 113.05003 | 22729 ft | 360 kts | 171° |
| 2026-05-07 23:59 | 22.10126 | 113.05528 | 22888 ft | 360 kts | 168° |
| 2026-05-07 23:59 | 22.07672 | 113.06181 | 23425 ft | 355 kts | 166° |
| 2026-05-08 00:00 | 22.05354 | 113.06928 | 24120 ft | 346 kts | 162° |
| 2026-05-08 00:00 | 22.03078 | 113.07795 | 24622 ft | 343 kts | 160° |
| 2026-05-08 00:00 | 22.00853 | 113.08784 | 24755 ft | 353 kts | 156° |
| 2026-05-08 00:00 | 21.98567 | 113.09965 | 24727 ft | 368 kts | 153° |
| 2026-05-08 00:01 | 21.96303 | 113.11295 | 24856 ft | 374 kts | 150° |
| 2026-05-08 00:01 | 21.94061 | 113.12764 | 25247 ft | 374 kts | 147° |
| 2026-05-08 00:01 | 21.91903 | 113.14312 | 25803 ft | 369 kts | 145° |
| 2026-05-08 00:01 | 21.89840 | 113.15912 | 26259 ft | 367 kts | 143° |
| 2026-05-08 00:02 | 21.87808 | 113.17626 | 26469 ft | 372 kts | 141° |
| 2026-05-08 00:02 | 21.85793 | 113.19459 | 26498 ft | 383 kts | 139° |
| 2026-05-08 00:02 | 21.83798 | 113.21398 | 26538 ft | 389 kts | 136° |
| 2026-05-08 00:02 | 21.81853 | 113.23435 | 26583 ft | 389 kts | 135° |
| 2026-05-08 00:03 | 21.80001 | 113.25536 | 26550 ft | 389 kts | 132° |
| 2026-05-08 00:03 | 21.78228 | 113.27724 | 26410 ft | 388 kts | 129° |
| 2026-05-08 00:03 | 21.76516 | 113.29999 | 26133 ft | 387 kts | 128° |
| 2026-05-08 00:03 | 21.74897 | 113.32311 | 25712 ft | 387 kts | 126° |
| 2026-05-08 00:04 | 21.73353 | 113.34685 | 25199 ft | 386 kts | 123° |
| 2026-05-08 00:04 | 21.71910 | 113.37092 | 24702 ft | 385 kts | 121° |
| 2026-05-08 00:04 | 21.70534 | 113.39558 | 24317 ft | 380 kts | 120° |
| 2026-05-08 00:04 | 21.69231 | 113.42023 | 24036 ft | 373 kts | 118° |
| 2026-05-08 00:05 | 21.68031 | 113.44453 | 23773 ft | 367 kts | 116° |
| 2026-05-08 00:05 | 21.66919 | 113.46900 | 23547 ft | 364 kts | 114° |
| 2026-05-08 00:05 | 21.65917 | 113.49391 | 23445 ft | 362 kts | 111° |
| 2026-05-08 00:05 | 21.65026 | 113.51920 | 23578 ft | 363 kts | 108° |
| 2026-05-08 00:06 | 21.64235 | 113.54501 | 24076 ft | 358 kts | 105° |
| 2026-05-08 00:06 | 21.63575 | 113.57027 | 24743 ft | 349 kts | 103° |
| 2026-05-08 00:06 | 21.63022 | 113.59564 | 25216 ft | 346 kts | 101° |
| 2026-05-08 00:06 | 21.62573 | 113.62139 | 25349 ft | 355 kts | 98° |
| 2026-05-08 00:07 | 21.62221 | 113.64784 | 25326 ft | 368 kts | 95° |
| 2026-05-08 00:07 | 21.61965 | 113.67537 | 25415 ft | 374 kts | 93° |
| 2026-05-08 00:07 | 21.61817 | 113.70358 | 25717 ft | 374 kts | 91° |
| 2026-05-08 00:07 | 21.61780 | 113.73109 | 26192 ft | 371 kts | 88° |
| 2026-05-08 00:08 | 21.61851 | 113.75857 | 26678 ft | 366 kts | 85° |
| 2026-05-08 00:08 | 21.62036 | 113.78601 | 26991 ft | 368 kts | 83° |
| 2026-05-08 00:08 | 21.62336 | 113.81339 | 27101 ft | 375 kts | 80° |
| 2026-05-08 00:08 | 21.62767 | 113.84161 | 27125 ft | 384 kts | 78° |
| 2026-05-08 00:09 | 21.63312 | 113.86955 | 27165 ft | 384 kts | 75° |
| 2026-05-08 00:09 | 21.63968 | 113.89749 | 27150 ft | 383 kts | 73° |
| 2026-05-08 00:09 | 21.64720 | 113.92489 | 27037 ft | 382 kts | 71° |
| 2026-05-08 00:09 | 21.65578 | 113.95204 | 26795 ft | 382 kts | 69° |
| 2026-05-08 00:10 | 21.66445 | 113.97913 | 26392 ft | 382 kts | 73° |
| 2026-05-08 00:10 | 21.66985 | 114.00687 | 25974 ft | 380 kts | 84° |
| 2026-05-08 00:10 | 21.67115 | 114.03508 | 25572 ft | 384 kts | 87° |
| 2026-05-08 00:10 | 21.67196 | 114.06451 | 25444 ft | 397 kts | 87° |
| 2026-05-08 00:11 | 21.67286 | 114.09442 | 25505 ft | 410 kts | 87° |
| 2026-05-08 00:11 | 21.67381 | 114.12474 | 25613 ft | 421 kts | 87° |
| 2026-05-08 00:11 | 21.67481 | 114.15637 | 25741 ft | 431 kts | 87° |
| 2026-05-08 00:11 | 21.67582 | 114.18879 | 25980 ft | 438 kts | 87° |
| 2026-05-08 00:12 | 21.67684 | 114.22162 | 26368 ft | 440 kts | 87° |
| 2026-05-08 00:12 | 21.67784 | 114.25455 | 26651 ft | 446 kts | 87° |
| 2026-05-08 00:12 | 21.67885 | 114.28830 | 26714 ft | 457 kts | 87° |
| 2026-05-08 00:12 | 21.67989 | 114.32327 | 26787 ft | 468 kts | 87° |
| 2026-05-08 00:13 | 21.68092 | 114.35845 | 26926 ft | 476 kts | 87° |
| 2026-05-08 00:13 | 21.68195 | 114.39402 | 27088 ft | 484 kts | 87° |
| 2026-05-08 00:13 | 21.68300 | 114.43050 | 27277 ft | 490 kts | 87° |
| 2026-05-08 00:13 | 21.68404 | 114.46722 | 27626 ft | 493 kts | 87° |
| 2026-05-08 00:14 | 21.68507 | 114.50397 | 28134 ft | 492 kts | 87° |
| 2026-05-08 00:14 | 21.68609 | 114.54064 | 28660 ft | 490 kts | 87° |
| 2026-05-08 00:14 | 21.68711 | 114.57733 | 29199 ft | 488 kts | 87° |
| 2026-05-08 00:14 | 21.68811 | 114.61364 | 29642 ft | 488 kts | 87° |
| 2026-05-08 00:15 | 21.68910 | 114.64995 | 30053 ft | 489 kts | 87° |
| 2026-05-08 00:15 | 21.69008 | 114.68647 | 30432 ft | 490 kts | 87° |
| 2026-05-08 00:15 | 21.69107 | 114.72338 | 30857 ft | 490 kts | 87° |
| 2026-05-08 00:15 | 21.69206 | 114.76002 | 31214 ft | 491 kts | 86° |
| 2026-05-08 00:16 | 21.69304 | 114.79662 | 31576 ft | 492 kts | 86° |
| 2026-05-08 00:16 | 21.69400 | 114.83308 | 31963 ft | 491 kts | 86° |
| 2026-05-08 00:16 | 21.69497 | 114.87003 | 32356 ft | 491 kts | 86° |
| 2026-05-08 00:16 | 21.69591 | 114.90627 | 32761 ft | 490 kts | 86° |
| 2026-05-08 00:17 | 21.69685 | 114.94330 | 33187 ft | 489 kts | 86° |
| 2026-05-08 00:17 | 21.69778 | 114.97965 | 33605 ft | 488 kts | 86° |
| 2026-05-08 00:17 | 21.69869 | 115.01588 | 34010 ft | 488 kts | 85° |
| 2026-05-08 00:17 | 21.69961 | 115.05245 | 34381 ft | 487 kts | 85° |
| 2026-05-08 00:18 | 21.70051 | 115.08891 | 34755 ft | 487 kts | 85° |
| 2026-05-08 00:18 | 21.70141 | 115.12511 | 35097 ft | 487 kts | 85° |
| 2026-05-08 00:18 | 21.70230 | 115.16145 | 35428 ft | 487 kts | 85° |
| 2026-05-08 00:18 | 21.70321 | 115.19843 | 35763 ft | 487 kts | 85° |
| 2026-05-08 00:19 | 21.70409 | 115.23479 | 36063 ft | 487 kts | 85° |
| 2026-05-08 00:19 | 21.70497 | 115.27179 | 36381 ft | 487 kts | 85° |
| 2026-05-08 00:19 | 21.70582 | 115.30792 | 36650 ft | 488 kts | 84° |
| 2026-05-08 00:19 | 21.70668 | 115.34460 | 36924 ft | 487 kts | 84° |
| 2026-05-08 00:20 | 21.70836 | 115.41788 | 36948 ft | 487 kts | 84° |
| 2026-05-08 00:20 | 21.70999 | 115.49033 | 36953 ft | 486 kts | 84° |
| 2026-05-08 00:21 | 21.71161 | 115.56287 | 36953 ft | 485 kts | 84° |
| 2026-05-08 00:21 | 21.71320 | 115.63541 | 36953 ft | 486 kts | 84° |
| 2026-05-08 00:22 | 21.71476 | 115.70810 | 36955 ft | 486 kts | 85° |
| 2026-05-08 00:22 | 21.71627 | 115.78043 | 36952 ft | 485 kts | 85° |
| 2026-05-08 00:23 | 21.71778 | 115.85332 | 36953 ft | 486 kts | 85° |
| 2026-05-08 00:23 | 21.71923 | 115.92597 | 36959 ft | 484 kts | 85° |
| 2026-05-08 00:24 | 21.72064 | 115.99792 | 36963 ft | 484 kts | 85° |
| 2026-05-08 00:24 | 21.72201 | 116.07039 | 36960 ft | 484 kts | 85° |
| 2026-05-08 00:25 | 21.72339 | 116.14304 | 36962 ft | 486 kts | 85° |
| 2026-05-08 00:25 | 21.72472 | 116.21529 | 36961 ft | 484 kts | 85° |
| 2026-05-08 00:26 | 21.72602 | 116.28789 | 36961 ft | 484 kts | 85° |
| 2026-05-08 00:26 | 21.72729 | 116.36050 | 36961 ft | 484 kts | 85° |
| 2026-05-08 00:27 | 21.72852 | 116.43238 | 36957 ft | 485 kts | 85° |
| 2026-05-08 00:27 | 21.72973 | 116.50505 | 36963 ft | 484 kts | 85° |
| 2026-05-08 00:28 | 21.73087 | 116.57723 | 36955 ft | 484 kts | 85° |
| 2026-05-08 00:28 | 21.73200 | 116.65009 | 36956 ft | 484 kts | 85° |
| 2026-05-08 00:29 | 21.73315 | 116.72224 | 36959 ft | 484 kts | 85° |
| 2026-05-08 00:29 | 21.73969 | 116.79371 | 36955 ft | 478 kts | 73° |
| 2026-05-08 00:30 | 21.75915 | 116.86166 | 36958 ft | 473 kts | 65° |
| 2026-05-08 00:30 | 21.78332 | 116.92725 | 36961 ft | 471 kts | 63° |
| 2026-05-08 00:31 | 21.80825 | 116.99272 | 36955 ft | 471 kts | 63° |
| 2026-05-08 00:31 | 21.83276 | 117.05831 | 36949 ft | 472 kts | 64° |
| 2026-05-08 00:32 | 21.85690 | 117.12417 | 36946 ft | 474 kts | 64° |
| 2026-05-08 00:32 | 21.88080 | 117.19020 | 36946 ft | 472 kts | 64° |
| 2026-05-08 00:33 | 21.90465 | 117.25639 | 36945 ft | 472 kts | 64° |
| 2026-05-08 00:33 | 21.92842 | 117.32261 | 36945 ft | 471 kts | 64° |
| 2026-05-08 00:34 | 21.95198 | 117.38832 | 36946 ft | 472 kts | 64° |
| 2026-05-08 00:34 | 21.97573 | 117.45461 | 36946 ft | 471 kts | 64° |
| 2026-05-08 00:35 | 22.00232 | 117.51880 | 36947 ft | 467 kts | 57° |
| 2026-05-08 00:35 | 22.03487 | 117.57925 | 36945 ft | 466 kts | 53° |
| 2026-05-08 00:36 | 22.06913 | 117.63842 | 36946 ft | 465 kts | 53° |
| 2026-05-08 00:36 | 22.10345 | 117.69747 | 36946 ft | 466 kts | 54° |
| 2026-05-08 00:37 | 22.13703 | 117.75591 | 36947 ft | 466 kts | 54° |
| 2026-05-08 00:38 | 22.18832 | 117.84611 | 36950 ft | 465 kts | 54° |
| 2026-05-08 00:38 | 22.22219 | 117.90598 | 36950 ft | 468 kts | 54° |
| 2026-05-08 00:39 | 22.25617 | 117.96618 | 36950 ft | 468 kts | 54° |
| 2026-05-08 00:39 | 22.29018 | 118.02629 | 36951 ft | 468 kts | 54° |
| 2026-05-08 00:40 | 22.32497 | 118.08621 | 36952 ft | 469 kts | 53° |
| 2026-05-08 00:40 | 22.35993 | 118.14583 | 36952 ft | 467 kts | 53° |
| 2026-05-08 00:41 | 22.39491 | 118.20560 | 36953 ft | 468 kts | 53° |
| 2026-05-08 00:41 | 22.42940 | 118.26529 | 36954 ft | 468 kts | 54° |
| 2026-05-08 00:42 | 22.46354 | 118.32557 | 36957 ft | 469 kts | 54° |
| 2026-05-08 00:42 | 22.49753 | 118.38590 | 36955 ft | 469 kts | 54° |
| 2026-05-08 00:43 | 22.53170 | 118.44651 | 36957 ft | 469 kts | 54° |
| 2026-05-08 00:43 | 22.56574 | 118.50686 | 36956 ft | 470 kts | 54° |
| 2026-05-08 00:44 | 22.59980 | 118.56699 | 36959 ft | 469 kts | 53° |
| 2026-05-08 00:44 | 22.63416 | 118.62725 | 36962 ft | 470 kts | 54° |
| 2026-05-08 00:45 | 22.66874 | 118.68790 | 36960 ft | 470 kts | 54° |
| 2026-05-08 00:45 | 22.70309 | 118.74827 | 36962 ft | 470 kts | 54° |
| 2026-05-08 00:46 | 22.73733 | 118.80856 | 36962 ft | 471 kts | 54° |
| 2026-05-08 00:46 | 22.77168 | 118.86914 | 36963 ft | 470 kts | 54° |
| 2026-05-08 00:47 | 22.80600 | 118.92976 | 36964 ft | 471 kts | 54° |
| 2026-05-08 00:47 | 22.84030 | 118.99040 | 36963 ft | 470 kts | 54° |
| 2026-05-08 00:48 | 22.87448 | 119.05091 | 36964 ft | 470 kts | 54° |
| 2026-05-08 00:48 | 22.90871 | 119.11156 | 36966 ft | 470 kts | 54° |
| 2026-05-08 00:49 | 22.94282 | 119.17209 | 36967 ft | 471 kts | 54° |
| 2026-05-08 00:49 | 22.97716 | 119.23306 | 36966 ft | 472 kts | 54° |
| 2026-05-08 00:50 | 23.01150 | 119.29413 | 36967 ft | 473 kts | 54° |
| 2026-05-08 00:50 | 23.04589 | 119.35536 | 36966 ft | 471 kts | 54° |
| 2026-05-08 00:51 | 23.07995 | 119.41610 | 36968 ft | 472 kts | 54° |
| 2026-05-08 00:51 | 23.11400 | 119.47688 | 36969 ft | 472 kts | 54° |
| 2026-05-08 00:52 | 23.14642 | 119.53479 | 36970 ft | 472 kts | 54° |
| 2026-05-08 00:52 | 23.17991 | 119.59470 | 36969 ft | 473 kts | 54° |
| 2026-05-08 00:53 | 23.21128 | 119.65089 | 36970 ft | 470 kts | 54° |
| 2026-05-08 00:53 | 23.24471 | 119.71076 | 36972 ft | 472 kts | 54° |
| 2026-05-08 00:54 | 23.27878 | 119.77183 | 36974 ft | 472 kts | 54° |
| 2026-05-08 00:54 | 23.31298 | 119.83322 | 36976 ft | 473 kts | 54° |
| 2026-05-08 00:55 | 23.34661 | 119.89293 | 36977 ft | 472 kts | 53° |
| 2026-05-08 00:55 | 23.38609 | 119.94961 | 36977 ft | 466 kts | 43° |
| 2026-05-08 00:56 | 23.43188 | 119.99900 | 36974 ft | 462 kts | 38° |
| 2026-05-08 00:56 | 23.47949 | 120.04649 | 36979 ft | 462 kts | 37° |
| 2026-05-08 00:57 | 23.52722 | 120.09417 | 36982 ft | 462 kts | 38° |
| 2026-05-08 00:57 | 23.57437 | 120.14199 | 36989 ft | 462 kts | 38° |
| 2026-05-08 00:58 | 23.62124 | 120.19006 | 36986 ft | 464 kts | 38° |
| 2026-05-08 00:58 | 23.66837 | 120.23867 | 36989 ft | 462 kts | 38° |
| 2026-05-08 00:59 | 23.71532 | 120.28723 | 36991 ft | 463 kts | 38° |
| 2026-05-08 00:59 | 23.76211 | 120.33570 | 36996 ft | 463 kts | 38° |
| 2026-05-08 01:00 | 23.80915 | 120.38451 | 37001 ft | 463 kts | 38° |
| 2026-05-08 01:00 | 23.85586 | 120.43303 | 36999 ft | 464 kts | 38° |
| 2026-05-08 01:01 | 23.90322 | 120.48225 | 36999 ft | 464 kts | 38° |
| 2026-05-08 01:01 | 23.95004 | 120.53126 | 37006 ft | 465 kts | 39° |
| 2026-05-08 01:02 | 23.99648 | 120.58031 | 37016 ft | 464 kts | 39° |
| 2026-05-08 01:02 | 24.04299 | 120.62949 | 37025 ft | 464 kts | 39° |
| 2026-05-08 01:03 | 24.08998 | 120.67919 | 37031 ft | 466 kts | 39° |
| 2026-05-08 01:03 | 24.13534 | 120.72720 | 37040 ft | 465 kts | 39° |
| 2026-05-08 01:04 | 24.18202 | 120.77665 | 37049 ft | 466 kts | 39° |
| 2026-05-08 01:04 | 24.22861 | 120.82606 | 37081 ft | 465 kts | 39° |
| 2026-05-08 01:05 | 24.26527 | 120.86496 | 37114 ft | 466 kts | 39° |
| 2026-05-08 01:05 | 24.29544 | 120.89700 | 37128 ft | 466 kts | 39° |